General Aviation Weather

Text Reports

Enter one or more of the following location identifiers separated by a space:

Zip Code, Four-Character ICAO or Three-Character IATA airport codes.

METAR - Aviation Routine Weather Report
KGLR - Gaylord, Michigan
Updated at 7:53 PM GMT on January 26, 2015 (2:53 PM EST):
METAR KGLR 261953Z AUTO VRB04KT 10SM FEW090 M07/M13 A2988 RMK AO2 SLP149 T10671133
TAF - Terminal Area Forecast
KGLR - Gaylord, Michigan
Updated at 7:53 PM GMT on January 26, 2015 (2:53 PM EST):
No TAF is currently available for this location.
Decoded:
No decoded TAF is available.
PIREP - Pilot Weather Report
KGLR - Gaylord, Michigan
Updated at 7:53 PM GMT on January 26, 2015 (2:53 PM EST):
No PIREP is currently available for this location.
AIRMET - Airmens Meteorological Information
KGLR - Gaylord, Michigan
Updated at 7:53 PM GMT on January 26, 2015 (2:53 PM EST):
No AIRMET is currently available for this location.
SIGMET - Significant Meteorological Information
KGLR - Gaylord, Michigan
Updated at 7:53 PM GMT on January 26, 2015 (2:53 PM EST):
No SIGMET is currently available for this location.
NOTAM - Notice to Airmen
KGLR - Gaylord, Michigan
Updated at 7:53 PM GMT on January 26, 2015 (2:53 PM EST):
No NOTAM is currently available for this location.
Forecast Area
KGLR - Gaylord, Michigan
Updated at 7:53 PM GMT on January 26, 2015 (2:53 PM EST):
No NOTAM is currently available for this location.
Aviation Weather Maps